»·PEaware :: DAL797 KLAX-KDEN

DAL797 :: KLAX-KDEN

FLIGHT INFORMATION

Flight Status: Arrived
Operator:
Delta Air Lines
More flights by this operator :: More flights under this callsign
Pilot: Bryan M. (20745)
Aircraft: BOEING 737-800
(B738)
More flights by this aircraft type
Origin: KLAX Los Angeles Intl
United States
Destination: KDEN Denver Intl
United States
More flights between these airports :: More routes between these airports
Route: +ORCKA3 LAS J146 DVC DCT WOLLF TELLR2
File this flight plan on PilotEdge
Remarks:
Altitude:
(Current/Filed)
39,000ft
Speed:
(Current/Filed)
454kts
Departed: 10-Oct-18 12:09 PM
Arrived: 10-Oct-18 01:54 PM
Distance/Time
Traveled:
747nm/1:45
Distance/Time
To Go:
Arrived

Flight Plot

Page will automatically refresh every two minutes.

Flight plan parsing failed; only flown route is shown


Map Options




Map Legend


Flown Route
Filed Route
Departure Airport
Arrival Airport
Navaid (VOR, NDB)
Fix

Horizontal Profiles

Position Reports

Time Latitude Longitude Heading Altitude Ground
Speed
10-Oct-18 11:37 33.946753 -118.406584 258 134ft 0kts
10-Oct-18 11:38 33.946753 -118.406584 258 134ft 0kts
10-Oct-18 11:39 33.946753 -118.406584 258 134ft 0kts
10-Oct-18 11:40 33.946753 -118.406584 258 134ft 0kts
10-Oct-18 11:41 33.946753 -118.406584 258 134ft 0kts
10-Oct-18 11:42 33.946753 -118.406584 258 134ft 0kts
10-Oct-18 11:43 33.946753 -118.406584 258 134ft 0kts
10-Oct-18 11:44 33.946753 -118.406584 258 134ft 0kts
10-Oct-18 11:45 33.946753 -118.406584 258 134ft 0kts
10-Oct-18 11:46 33.946753 -118.406584 258 134ft 0kts
10-Oct-18 11:47 33.946753 -118.406584 258 134ft 0kts
10-Oct-18 11:48 33.946753 -118.406584 258 134ft 0kts
10-Oct-18 11:49 33.946753 -118.406584 258 134ft 0kts
10-Oct-18 11:50 33.946753 -118.406584 258 134ft 0kts
10-Oct-18 11:51 33.946753 -118.406584 258 134ft 0kts
10-Oct-18 11:52 33.946753 -118.406584 258 134ft 0kts
10-Oct-18 11:53 33.946753 -118.406584 258 134ft 0kts
10-Oct-18 11:54 33.946753 -118.406584 258 134ft 0kts
10-Oct-18 11:55 33.946753 -118.406584 258 134ft 0kts
10-Oct-18 11:56 33.946753 -118.406584 258 134ft 0kts
10-Oct-18 11:57 33.946753 -118.406584 258 134ft 0kts
10-Oct-18 11:58 33.946753 -118.406584 258 134ft 0kts
10-Oct-18 11:59 33.946753 -118.406584 258 134ft 0kts
10-Oct-18 12:00 33.946753 -118.406584 258 134ft 0kts
10-Oct-18 12:01 33.946753 -118.406584 258 134ft 0kts
10-Oct-18 12:02 33.946753 -118.406584 258 134ft 0kts
10-Oct-18 12:03 33.946777 -118.406080 287 134ft 2kts
10-Oct-18 12:04 33.946335 -118.405802 352 134ft 0kts
10-Oct-18 12:05 33.946335 -118.405802 352 134ft 0kts
10-Oct-18 12:06 33.946335 -118.405802 352 134ft 0kts
10-Oct-18 12:07 33.946574 -118.405839 353 134ft 6kts
10-Oct-18 12:08 33.948702 -118.405465 82 134ft 8kts
10-Oct-18 12:09 33.949108 -118.403389 51 134ft 0kts
10-Oct-18 12:10 33.949298 -118.403151 34 134ft 9kts
10-Oct-18 12:11 33.948922 -118.414059 262 134ft 126kts
10-Oct-18 12:12 33.942714 -118.477060 263 2395ft 209kts
10-Oct-18 12:13 33.936781 -118.544763 263 4314ft 265kts
10-Oct-18 12:14 33.904760 -118.619587 190 7682ft 282kts
10-Oct-18 12:15 33.857913 -118.557162 95 11104ft 306kts
10-Oct-18 12:16 33.907367 -118.468058 35 13198ft 366kts
10-Oct-18 12:17 33.970504 -118.366944 55 16527ft 394kts
10-Oct-18 12:18 34.033932 -118.254867 53 19435ft 416kts
10-Oct-18 12:19 34.100817 -118.136576 53 22033ft 435kts
10-Oct-18 12:20 34.170196 -118.013483 53 24265ft 453kts
10-Oct-18 12:21 34.242850 -117.884615 54 26263ft 470kts
10-Oct-18 12:22 34.316838 -117.752159 54 28102ft 483kts
10-Oct-18 12:23 34.394977 -117.616608 52 29752ft 495kts
10-Oct-18 12:24 34.476450 -117.480260 52 31208ft 505kts
10-Oct-18 12:25 34.558086 -117.342666 52 32988ft 503kts
10-Oct-18 12:26 34.639809 -117.205092 52 34669ft 500kts
10-Oct-18 12:27 34.721028 -117.067364 52 36157ft 500kts
10-Oct-18 12:28 34.815244 -116.907172 52 37664ft 501kts
10-Oct-18 12:29 34.882368 -116.792057 51 38684ft 500kts
10-Oct-18 12:30 34.969058 -116.660837 43 39871ft 493kts
10-Oct-18 12:31 35.062376 -116.539276 43 40873ft 492kts
10-Oct-18 12:32 35.155640 -116.416041 43 40894ft 489kts
10-Oct-18 12:33 35.247339 -116.294877 43 40897ft 490kts
10-Oct-18 12:34 35.339174 -116.172637 43 40902ft 488kts
10-Oct-18 12:35 35.431084 -116.049936 43 40894ft 488kts
10-Oct-18 12:36 35.522631 -115.927137 43 40897ft 488kts
10-Oct-18 12:37 35.614198 -115.803569 43 40898ft 488kts
10-Oct-18 12:38 35.704826 -115.679387 44 40900ft 489kts
10-Oct-18 12:39 35.795581 -115.554051 44 40901ft 489kts
10-Oct-18 12:40 35.886080 -115.429140 44 40904ft 489kts
10-Oct-18 12:41 35.976773 -115.303546 44 40905ft 490kts
10-Oct-18 12:42 36.065647 -115.175466 51 40889ft 496kts
10-Oct-18 12:43 36.123938 -115.019171 67 40881ft 503kts
10-Oct-18 12:44 36.173077 -114.856898 66 40880ft 504kts
10-Oct-18 12:45 36.222786 -114.694183 67 40881ft 504kts
10-Oct-18 12:46 36.272016 -114.531842 67 40887ft 503kts
10-Oct-18 12:47 36.321324 -114.369228 67 40897ft 504kts
10-Oct-18 12:48 36.370663 -114.206328 67 40904ft 504kts
10-Oct-18 12:49 36.419427 -114.043743 67 40911ft 504kts
10-Oct-18 12:50 36.468128 -113.880228 66 40921ft 508kts
10-Oct-18 12:51 36.517038 -113.715207 66 40932ft 507kts
10-Oct-18 12:52 36.565825 -113.550132 67 40956ft 508kts
10-Oct-18 12:53 36.614175 -113.384278 67 40979ft 508kts
10-Oct-18 12:54 36.662170 -113.218677 67 40989ft 509kts
10-Oct-18 12:55 36.709912 -113.052534 67 40998ft 510kts
10-Oct-18 12:56 36.757598 -112.886542 67 41013ft 510kts
10-Oct-18 12:57 36.805646 -112.719728 67 41015ft 510kts
10-Oct-18 12:58 36.852900 -112.552571 67 41022ft 511kts
10-Oct-18 12:59 36.900041 -112.384728 67 41030ft 510kts
10-Oct-18 13:00 36.946763 -112.217459 68 41016ft 512kts
10-Oct-18 13:01 36.993379 -112.049221 68 40998ft 511kts
10-Oct-18 13:02 37.039906 -111.881336 67 40989ft 512kts
10-Oct-18 13:03 37.086579 -111.712473 67 40979ft 512kts
10-Oct-18 13:04 37.133030 -111.543471 67 40973ft 513kts
10-Oct-18 13:05 37.178878 -111.374389 68 40971ft 513kts
10-Oct-18 13:06 37.224526 -111.204652 68 40976ft 514kts
10-Oct-18 13:07 37.269923 -111.034350 68 40983ft 515kts
10-Oct-18 13:08 37.315137 -110.863163 68 40988ft 516kts
10-Oct-18 13:09 37.360600 -110.692116 68 40996ft 515kts
10-Oct-18 13:10 37.405718 -110.520883 68 41016ft 517kts
10-Oct-18 13:11 37.450506 -110.349275 68 41030ft 517kts
10-Oct-18 13:12 37.487783 -110.205443 69 41042ft 517kts
10-Oct-18 13:13 37.539446 -110.004705 69 41056ft 517kts
10-Oct-18 13:14 37.583473 -109.832345 69 41067ft 517kts
10-Oct-18 13:15 37.620068 -109.688174 69 41074ft 517kts
10-Oct-18 13:16 37.670846 -109.486726 69 41079ft 517kts
10-Oct-18 13:17 37.707027 -109.342196 69 41075ft 519kts
10-Oct-18 13:18 37.750596 -109.168019 70 41065ft 520kts
10-Oct-18 13:19 37.793649 -108.992874 70 41054ft 521kts
10-Oct-18 13:20 37.856536 -108.830096 53 41048ft 513kts
10-Oct-18 13:21 37.932579 -108.676606 53 41047ft 516kts
10-Oct-18 13:22 38.008045 -108.521877 53 41056ft 517kts
10-Oct-18 13:23 38.083487 -108.366695 54 41058ft 516kts
10-Oct-18 13:24 38.158496 -108.211043 54 41064ft 517kts
10-Oct-18 13:25 38.233456 -108.054612 54 41060ft 517kts
10-Oct-18 13:26 38.308100 -107.898732 56 41039ft 511kts
10-Oct-18 13:27 38.381280 -107.744210 56 41026ft 510kts
10-Oct-18 13:28 38.454336 -107.589029 57 41032ft 510kts
10-Oct-18 13:29 38.524973 -107.431561 58 41032ft 513kts
10-Oct-18 13:30 38.595630 -107.273003 58 41024ft 513kts
10-Oct-18 13:31 38.666500 -107.114381 58 41037ft 514kts
10-Oct-18 13:32 38.737416 -106.955211 58 40782ft 517kts
10-Oct-18 13:33 38.808098 -106.794612 58 39778ft 518kts
10-Oct-18 13:34 38.891623 -106.607111 55 36431ft 521kts
10-Oct-18 13:35 38.953953 -106.473151 54 33663ft 527kts
10-Oct-18 13:36 39.028481 -106.310970 55 30620ft 519kts
10-Oct-18 13:37 39.099665 -106.153740 56 28095ft 500kts
10-Oct-18 13:38 39.167500 -106.001075 58 25648ft 481kts
10-Oct-18 13:39 39.231945 -105.855079 61 23308ft 456kts
10-Oct-18 13:40 39.292911 -105.715516 60 21007ft 440kts
10-Oct-18 13:41 39.352390 -105.579767 60 19036ft 419kts
10-Oct-18 13:42 39.396698 -105.450435 82 18299ft 371kts
10-Oct-18 13:43 39.402159 -105.322287 89 17311ft 349kts
10-Oct-18 13:44 39.407954 -105.197626 88 15292ft 342kts
10-Oct-18 13:45 39.413219 -105.077942 88 13818ft 325kts
10-Oct-18 13:46 39.418095 -104.964146 88 13107ft 306kts
10-Oct-18 13:47 39.426795 -104.855186 84 12001ft 305kts
10-Oct-18 13:48 39.438849 -104.745464 72 11013ft 304kts
10-Oct-18 13:49 39.488338 -104.675111 3 10972ft 261kts
10-Oct-18 13:50 39.558272 -104.663716 357 10580ft 253kts
10-Oct-18 13:51 39.630006 -104.662936 359 9265ft 257kts
10-Oct-18 13:52 39.697987 -104.662120 1 7950ft 224kts
10-Oct-18 13:53 39.754465 -104.661439 1 6867ft 180kts
10-Oct-18 13:54 39.798292 -104.660925 3 6033ft 145kts
10-Oct-18 13:55 39.837517 -104.660464 2 5439ft 112kts
10-Oct-18 13:56 39.848431 -104.661109 331 5439ft 8kts
10-Oct-18 13:57 39.850104 -104.662347 339 5439ft 12kts
10-Oct-18 13:58 39.854087 -104.662405 0 5439ft 15kts
10-Oct-18 13:59 39.856889 -104.663479 359 5439ft 5kts
10-Oct-18 14:00 39.860040 -104.663582 316 5439ft 12kts
10-Oct-18 14:01 39.860509 -104.667883 270 5439ft 14kts
10-Oct-18 14:02 39.859475 -104.670699 191 5439ft 5kts
10-Oct-18 14:03 39.859216 -104.670738 181 5439ft 0kts
10-Oct-18 14:04 39.859216 -104.670738 181 5439ft 0kts
10-Oct-18 14:05 39.859216 -104.670738 181 5439ft 0kts
10-Oct-18 14:06 39.859216 -104.670738 181 5439ft 0kts
10-Oct-18 14:07 39.859216 -104.670738 181 5439ft 0kts
10-Oct-18 14:08 39.859216 -104.670738 181 5439ft 0kts
10-Oct-18 14:09 39.859216 -104.670738 181 5439ft 0kts
10-Oct-18 14:10 39.859216 -104.670738 181 5439ft 0kts
10-Oct-18 14:11 39.859216 -104.670738 181 5439ft 0kts

Navigation Log

Ident Type
Flight plan parsing failed, navigation log unavailable